sensor_id;sensor_type;location;lat;lon;timestamp;pressure;altitude;pressure_sealevel;temperature;humidity
10060;BME280;5069;49.306;8.636;2023-01-31T00:01:54;101517.78;;;3.87;100.00
10060;BME280;5069;49.306;8.636;2023-01-31T00:04:55;101511.63;;;3.84;100.00
10060;BME280;5069;49.306;8.636;2023-01-31T00:07:57;101520.31;;;3.83;100.00
10060;BME280;5069;49.306;8.636;2023-01-31T00:10:58;101525.59;;;3.89;100.00
10060;BME280;5069;49.306;8.636;2023-01-31T00:14:01;101521.16;;;3.80;100.00
10060;BME280;5069;49.306;8.636;2023-01-31T00:17:04;101514.19;;;3.79;100.00
10060;BME280;5069;49.306;8.636;2023-01-31T00:20:06;101529.13;;;3.91;100.00
10060;BME280;5069;49.306;8.636;2023-01-31T00:23:08;101526.44;;;3.88;100.00
10060;BME280;5069;49.306;8.636;2023-01-31T00:26:17;101525.66;;;3.92;100.00
10060;BME280;5069;49.306;8.636;2023-01-31T00:29:19;101524.75;;;3.90;100.00
10060;BME280;5069;49.306;8.636;2023-01-31T00:32:20;101529.13;;;3.92;100.00
10060;BME280;5069;49.306;8.636;2023-01-31T00:35:24;101535.19;;;3.90;100.00
10060;BME280;5069;49.306;8.636;2023-01-31T00:38:25;101538.72;;;3.95;100.00
10060;BME280;5069;49.306;8.636;2023-01-31T00:41:29;101541.25;;;3.89;100.00
10060;BME280;5069;49.306;8.636;2023-01-31T00:44:30;101537.84;;;3.93;100.00
10060;BME280;5069;49.306;8.636;2023-01-31T00:47:32;101534.28;;;3.88;100.00
10060;BME280;5069;49.306;8.636;2023-01-31T00:50:33;101533.44;;;3.90;100.00
10060;BME280;5069;49.306;8.636;2023-01-31T00:53:36;101529.19;;;4.00;100.00
10060;BME280;5069;49.306;8.636;2023-01-31T00:56:38;101517.00;;;3.96;100.00
10060;BME280;5069;49.306;8.636;2023-01-31T00:59:40;101513.41;;;3.88;100.00
10060;BME280;5069;49.306;8.636;2023-01-31T01:02:41;101517.69;;;3.80;100.00
10060;BME280;5069;49.306;8.636;2023-01-31T01:05:43;101516.06;;;3.91;100.00
10060;BME280;5069;49.306;8.636;2023-01-31T01:08:45;101514.31;;;3.90;100.00
10060;BME280;5069;49.306;8.636;2023-01-31T01:11:48;101505.59;;;3.89;100.00
10060;BME280;5069;49.306;8.636;2023-01-31T01:14:50;101516.97;;;3.93;100.00
10060;BME280;5069;49.306;8.636;2023-01-31T01:17:51;101519.56;;;3.91;100.00
10060;BME280;5069;49.306;8.636;2023-01-31T01:20:53;101516.22;;;4.03;100.00
10060;BME280;5069;49.306;8.636;2023-01-31T01:23:56;101517.78;;;3.90;100.00
10060;BME280;5069;49.306;8.636;2023-01-31T01:26:58;101518.56;;;3.82;100.00
10060;BME280;5069;49.306;8.636;2023-01-31T01:30:00;101520.28;;;3.80;100.00
10060;BME280;5069;49.306;8.636;2023-01-31T01:33:02;101525.53;;;3.83;100.00
10060;BME280;5069;49.306;8.636;2023-01-31T01:36:06;101522.00;;;3.78;100.00
10060;BME280;5069;49.306;8.636;2023-01-31T01:39:10;101518.56;;;3.80;100.00
10060;BME280;5069;49.306;8.636;2023-01-31T01:42:16;101523.78;;;3.83;100.00
10060;BME280;5069;49.306;8.636;2023-01-31T01:45:18;101527.25;;;3.82;100.00
10060;BME280;5069;49.306;8.636;2023-01-31T01:48:21;101525.53;;;3.83;100.00
10060;BME280;5069;49.306;8.636;2023-01-31T01:51:23;101526.34;;;3.79;100.00
10060;BME280;5069;49.306;8.636;2023-01-31T01:54:30;101528.97;;;3.79;100.00
10060;BME280;5069;49.306;8.636;2023-01-31T01:57:38;101541.06;;;3.73;100.00
10060;BME280;5069;49.306;8.636;2023-01-31T02:00:44;101535.94;;;3.80;100.00
10060;BME280;5069;49.306;8.636;2023-01-31T02:03:48;101533.28;;;3.77;100.00
10060;BME280;5069;49.306;8.636;2023-01-31T02:06:51;101541.16;;;3.80;100.00
10060;BME280;5069;49.306;8.636;2023-01-31T02:10:07;101542.94;;;3.84;100.00
10060;BME280;5069;49.306;8.636;2023-01-31T02:13:13;101544.63;;;3.82;100.00
10060;BME280;5069;49.306;8.636;2023-01-31T02:16:18;101541.97;;;3.77;100.00
10060;BME280;5069;49.306;8.636;2023-01-31T02:26:45;101542.78;;;3.71;100.00
10060;BME280;5069;49.306;8.636;2023-01-31T02:36:48;101547.97;;;3.68;100.00
10060;BME280;5069;49.306;8.636;2023-01-31T02:40:19;101542.69;;;3.65;100.00
10060;BME280;5069;49.306;8.636;2023-01-31T02:47:08;101550.56;;;3.68;100.00
10060;BME280;5069;49.306;8.636;2023-01-31T02:50:19;101548.75;;;3.61;100.00
10060;BME280;5069;49.306;8.636;2023-01-31T02:53:36;101548.75;;;3.63;100.00
10060;BME280;5069;49.306;8.636;2023-01-31T02:56:44;101548.72;;;3.58;100.00
10060;BME280;5069;49.306;8.636;2023-01-31T02:59:47;101546.09;;;3.60;100.00
10060;BME280;5069;49.306;8.636;2023-01-31T03:02:49;101534.00;;;3.63;100.00
10060;BME280;5069;49.306;8.636;2023-01-31T03:09:20;101536.53;;;3.59;100.00
10060;BME280;5069;49.306;8.636;2023-01-31T03:15:51;101537.19;;;3.43;100.00
10060;BME280;5069;49.306;8.636;2023-01-31T03:19:18;101542.50;;;3.50;100.00
10060;BME280;5069;49.306;8.636;2023-01-31T03:22:29;101538.06;;;3.42;100.00
10060;BME280;5069;49.306;8.636;2023-01-31T03:25:34;101540.72;;;3.46;100.00
10060;BME280;5069;49.306;8.636;2023-01-31T03:28:41;101548.34;;;3.32;100.00
10060;BME280;5069;49.306;8.636;2023-01-31T03:31:49;101543.97;;;3.30;100.00
10060;BME280;5069;49.306;8.636;2023-01-31T03:34:53;101553.53;;;3.29;100.00
10060;BME280;5069;49.306;8.636;2023-01-31T03:38:04;101549.03;;;3.21;100.00
10060;BME280;5069;49.306;8.636;2023-01-31T03:41:33;101557.69;;;3.20;100.00
10060;BME280;5069;49.306;8.636;2023-01-31T03:47:56;101567.25;;;3.19;100.00
10060;BME280;5069;49.306;8.636;2023-01-31T03:51:03;101567.16;;;3.12;100.00
10060;BME280;5069;49.306;8.636;2023-01-31T03:54:13;101580.88;;;3.03;100.00
10060;BME280;5069;49.306;8.636;2023-01-31T03:57:20;101572.19;;;3.03;100.00
10060;BME280;5069;49.306;8.636;2023-01-31T04:00:25;101566.00;;;2.95;100.00
10060;BME280;5069;49.306;8.636;2023-01-31T04:03:46;101578.00;;;2.86;100.00
10060;BME280;5069;49.306;8.636;2023-01-31T04:06:49;101583.28;;;2.89;100.00
10060;BME280;5069;49.306;8.636;2023-01-31T04:09:51;101579.66;;;2.81;100.00
10060;BME280;5069;49.306;8.636;2023-01-31T04:12:53;101586.66;;;2.85;100.00
10060;BME280;5069;49.306;8.636;2023-01-31T04:15:54;101575.31;;;2.80;100.00
10060;BME280;5069;49.306;8.636;2023-01-31T04:18:56;101578.69;;;2.73;100.00
10060;BME280;5069;49.306;8.636;2023-01-31T04:21:57;101572.44;;;2.65;100.00
10060;BME280;5069;49.306;8.636;2023-01-31T04:24:59;101580.19;;;2.62;100.00
10060;BME280;5069;49.306;8.636;2023-01-31T04:28:00;101581.88;;;2.59;100.00
10060;BME280;5069;49.306;8.636;2023-01-31T04:31:02;101587.84;;;2.53;100.00
10060;BME280;5069;49.306;8.636;2023-01-31T04:34:03;101582.69;;;2.55;100.00
10060;BME280;5069;49.306;8.636;2023-01-31T04:37:05;101580.66;;;2.40;100.00
10060;BME280;5069;49.306;8.636;2023-01-31T04:40:07;101577.06;;;2.32;100.00
10060;BME280;5069;49.306;8.636;2023-01-31T04:43:09;101577.09;;;2.35;100.00
10060;BME280;5069;49.306;8.636;2023-01-31T04:46:11;101586.63;;;2.33;100.00
10060;BME280;5069;49.306;8.636;2023-01-31T04:49:13;101584.06;;;2.36;100.00
10060;BME280;5069;49.306;8.636;2023-01-31T04:52:15;101582.19;;;2.29;100.00
10060;BME280;5069;49.306;8.636;2023-01-31T04:55:17;101581.19;;;2.21;100.00
10060;BME280;5069;49.306;8.636;2023-01-31T04:58:19;101573.19;;;2.10;100.00
10060;BME280;5069;49.306;8.636;2023-01-31T05:01:21;101580.97;;;2.12;100.00
10060;BME280;5069;49.306;8.636;2023-01-31T05:04:22;101571.34;;;2.04;100.00
10060;BME280;5069;49.306;8.636;2023-01-31T05:07:23;101565.34;;;2.08;100.00
10060;BME280;5069;49.306;8.636;2023-01-31T05:10:25;101567.00;;;2.05;100.00
10060;BME280;5069;49.306;8.636;2023-01-31T05:13:27;101564.50;;;2.10;100.00
10060;BME280;5069;49.306;8.636;2023-01-31T05:16:30;101569.69;;;2.10;100.00
10060;BME280;5069;49.306;8.636;2023-01-31T05:19:32;101557.31;;;1.98;100.00
10060;BME280;5069;49.306;8.636;2023-01-31T05:22:33;101564.28;;;2.00;100.00
10060;BME280;5069;49.306;8.636;2023-01-31T05:25:36;101567.66;;;1.93;100.00
10060;BME280;5069;49.306;8.636;2023-01-31T05:28:37;101577.13;;;1.91;100.00
10060;BME280;5069;49.306;8.636;2023-01-31T05:31:39;101567.56;;;1.90;100.00
10060;BME280;5069;49.306;8.636;2023-01-31T05:34:40;101569.31;;;1.91;100.00
10060;BME280;5069;49.306;8.636;2023-01-31T05:37:42;101562.38;;;1.90;100.00
10060;BME280;5069;49.306;8.636;2023-01-31T05:40:45;101564.91;;;1.87;100.00
10060;BME280;5069;49.306;8.636;2023-01-31T05:43:46;101554.53;;;1.87;100.00
10060;BME280;5069;49.306;8.636;2023-01-31T05:46:48;101563.94;;;1.82;100.00
10060;BME280;5069;49.306;8.636;2023-01-31T05:49:49;101566.69;;;1.90;100.00
10060;BME280;5069;49.306;8.636;2023-01-31T05:52:52;101579.63;;;1.88;100.00
10060;BME280;5069;49.306;8.636;2023-01-31T05:55:54;101581.41;;;1.89;100.00
10060;BME280;5069;49.306;8.636;2023-01-31T05:58:56;101591.75;;;1.86;100.00
10060;BME280;5069;49.306;8.636;2023-01-31T06:01:57;101583.97;;;1.86;100.00
10060;BME280;5069;49.306;8.636;2023-01-31T06:05:00;101579.72;;;1.91;100.00
10060;BME280;5069;49.306;8.636;2023-01-31T06:08:02;101573.56;;;1.86;100.00
10060;BME280;5069;49.306;8.636;2023-01-31T06:11:04;101572.72;;;1.87;100.00
10060;BME280;5069;49.306;8.636;2023-01-31T06:14:07;101574.44;;;1.88;100.00
10060;BME280;5069;49.306;8.636;2023-01-31T06:17:08;101571.84;;;1.87;100.00
10060;BME280;5069;49.306;8.636;2023-01-31T06:20:10;101579.63;;;1.88;100.00
10060;BME280;5069;49.306;8.636;2023-01-31T06:23:11;101581.34;;;1.86;100.00
10060;BME280;5069;49.306;8.636;2023-01-31T06:26:13;101585.81;;;1.92;100.00
10060;BME280;5069;49.306;8.636;2023-01-31T06:29:15;101591.81;;;1.89;100.00
10060;BME280;5069;49.306;8.636;2023-01-31T06:32:16;101598.84;;;1.95;100.00
10060;BME280;5069;49.306;8.636;2023-01-31T06:35:17;101603.25;;;1.97;100.00
10060;BME280;5069;49.306;8.636;2023-01-31T06:38:19;101604.28;;;2.05;100.00
10060;BME280;5069;49.306;8.636;2023-01-31T06:41:21;101592.97;;;2.03;100.00
10060;BME280;5069;49.306;8.636;2023-01-31T06:44:22;101604.31;;;2.07;100.00
10060;BME280;5069;49.306;8.636;2023-01-31T06:47:26;101607.88;;;2.11;100.00
10060;BME280;5069;49.306;8.636;2023-01-31T06:50:28;101601.91;;;2.18;100.00
10060;BME280;5069;49.306;8.636;2023-01-31T06:53:29;101611.47;;;2.19;100.00
10060;BME280;5069;49.306;8.636;2023-01-31T06:56:31;101615.84;;;2.20;100.00
10060;BME280;5069;49.306;8.636;2023-01-31T06:59:33;101600.28;;;2.23;100.00
10060;BME280;5069;49.306;8.636;2023-01-31T07:02:34;101606.34;;;2.22;100.00
10060;BME280;5069;49.306;8.636;2023-01-31T07:05:35;101612.34;;;2.19;100.00
10060;BME280;5069;49.306;8.636;2023-01-31T07:08:37;101609.81;;;2.22;100.00
10060;BME280;5069;49.306;8.636;2023-01-31T07:11:38;101610.63;;;2.20;100.00
10060;BME280;5069;49.306;8.636;2023-01-31T07:14:40;101608.97;;;2.23;100.00
10060;BME280;5069;49.306;8.636;2023-01-31T07:17:42;101621.00;;;2.18;100.00
10060;BME280;5069;49.306;8.636;2023-01-31T07:20:44;101624.44;;;2.16;100.00
10060;BME280;5069;49.306;8.636;2023-01-31T07:23:45;101619.38;;;2.22;100.00
10060;BME280;5069;49.306;8.636;2023-01-31T07:26:51;101635.84;;;2.24;100.00
10060;BME280;5069;49.306;8.636;2023-01-31T07:29:53;101632.28;;;2.19;100.00
10060;BME280;5069;49.306;8.636;2023-01-31T07:32:54;101632.16;;;2.13;100.00
10060;BME280;5069;49.306;8.636;2023-01-31T07:35:56;101637.31;;;2.11;100.00
10060;BME280;5069;49.306;8.636;2023-01-31T07:38:57;101648.66;;;2.13;100.00
10060;BME280;5069;49.306;8.636;2023-01-31T07:42:00;101658.34;;;2.20;100.00
10060;BME280;5069;49.306;8.636;2023-01-31T07:45:01;101651.56;;;2.27;100.00
10060;BME280;5069;49.306;8.636;2023-01-31T07:48:23;101655.13;;;2.32;100.00
10060;BME280;5069;49.306;8.636;2023-01-31T07:51:24;101648.19;;;2.32;100.00
10060;BME280;5069;49.306;8.636;2023-01-31T07:54:26;101648.31;;;2.40;100.00
10060;BME280;5069;49.306;8.636;2023-01-31T07:57:30;101655.41;;;2.47;100.00
10060;BME280;5069;49.306;8.636;2023-01-31T08:00:32;101653.59;;;2.43;100.00
10060;BME280;5069;49.306;8.636;2023-01-31T08:03:52;101657.28;;;2.54;100.00
10060;BME280;5069;49.306;8.636;2023-01-31T08:06:54;101662.47;;;2.53;100.00
10060;BME280;5069;49.306;8.636;2023-01-31T08:09:56;101648.59;;;2.54;100.00
10060;BME280;5069;49.306;8.636;2023-01-31T08:12:57;101647.78;;;2.58;100.00
10060;BME280;5069;49.306;8.636;2023-01-31T08:15:59;101651.28;;;2.58;100.00
10060;BME280;5069;49.306;8.636;2023-01-31T08:19:01;101647.84;;;2.59;100.00
10060;BME280;5069;49.306;8.636;2023-01-31T08:22:03;101643.53;;;2.61;100.00
10060;BME280;5069;49.306;8.636;2023-01-31T08:25:05;101642.59;;;2.58;100.00
10060;BME280;5069;49.306;8.636;2023-01-31T08:28:06;101647.06;;;2.65;100.00
10060;BME280;5069;49.306;8.636;2023-01-31T08:31:17;101655.75;;;2.65;100.00
10060;BME280;5069;49.306;8.636;2023-01-31T08:34:19;101658.28;;;2.62;100.00
10060;BME280;5069;49.306;8.636;2023-01-31T08:37:21;101654.94;;;2.68;100.00
10060;BME280;5069;49.306;8.636;2023-01-31T08:40:22;101654.38;;;2.85;100.00
10060;BME280;5069;49.306;8.636;2023-01-31T08:43:24;101654.59;;;2.98;100.00
10060;BME280;5069;49.306;8.636;2023-01-31T08:46:27;101652.91;;;3.00;100.00
10060;BME280;5069;49.306;8.636;2023-01-31T08:49:31;101645.91;;;2.96;100.00
10060;BME280;5069;49.306;8.636;2023-01-31T08:52:36;101640.13;;;3.15;100.00
10060;BME280;5069;49.306;8.636;2023-01-31T08:55:37;101639.34;;;3.19;100.00
10060;BME280;5069;49.306;8.636;2023-01-31T08:58:40;101643.84;;;3.30;100.00
10060;BME280;5069;49.306;8.636;2023-01-31T09:01:42;101630.91;;;3.35;100.00
10060;BME280;5069;49.306;8.636;2023-01-31T09:04:46;101634.47;;;3.40;100.00
10060;BME280;5069;49.306;8.636;2023-01-31T09:07:48;101642.44;;;3.51;100.00
10060;BME280;5069;49.306;8.636;2023-01-31T09:10:51;101639.09;;;3.58;100.00
10060;BME280;5069;49.306;8.636;2023-01-31T09:13:53;101642.63;;;3.63;100.00
10060;BME280;5069;49.306;8.636;2023-01-31T09:16:54;101638.47;;;3.76;100.00
10060;BME280;5069;49.306;8.636;2023-01-31T09:19:56;101636.66;;;3.71;100.00
10060;BME280;5069;49.306;8.636;2023-01-31T09:22:58;101646.31;;;3.76;100.00
10060;BME280;5069;49.306;8.636;2023-01-31T09:25:59;101649.97;;;3.90;100.00
10060;BME280;5069;49.306;8.636;2023-01-31T09:29:01;101637.03;;;3.99;100.00
10060;BME280;5069;49.306;8.636;2023-01-31T09:32:02;101638.88;;;4.06;100.00
10060;BME280;5069;49.306;8.636;2023-01-31T09:35:04;101653.56;;;3.99;100.00
10060;BME280;5069;49.306;8.636;2023-01-31T09:38:06;101649.03;;;3.85;100.00
10060;BME280;5069;49.306;8.636;2023-01-31T09:41:25;101655.38;;;4.05;100.00
10060;BME280;5069;49.306;8.636;2023-01-31T09:44:30;101635.72;;;4.34;100.00
10060;BME280;5069;49.306;8.636;2023-01-31T09:47:37;101639.34;;;4.47;100.00
10060;BME280;5069;49.306;8.636;2023-01-31T09:50:45;101634.31;;;4.64;100.00
10060;BME280;5069;49.306;8.636;2023-01-31T09:53:48;101635.22;;;4.66;100.00
10060;BME280;5069;49.306;8.636;2023-01-31T10:00:33;101632.75;;;4.81;100.00
10060;BME280;5069;49.306;8.636;2023-01-31T10:03:47;101631.19;;;5.03;100.00
10060;BME280;5069;49.306;8.636;2023-01-31T10:06:59;101633.19;;;5.29;100.00
10060;BME280;5069;49.306;8.636;2023-01-31T10:10:13;101629.81;;;5.49;100.00
10060;BME280;5069;49.306;8.636;2023-01-31T10:13:25;101624.66;;;5.61;100.00
10060;BME280;5069;49.306;8.636;2023-01-31T10:16:34;101628.19;;;5.63;100.00
10060;BME280;5069;49.306;8.636;2023-01-31T10:22:59;101629.00;;;5.54;100.00
10060;BME280;5069;49.306;8.636;2023-01-31T10:26:09;101630.69;;;5.48;100.00
10060;BME280;5069;49.306;8.636;2023-01-31T10:29:23;101633.38;;;5.57;100.00
10060;BME280;5069;49.306;8.636;2023-01-31T10:32:35;101637.78;;;5.62;100.00
10060;BME280;5069;49.306;8.636;2023-01-31T10:35:41;101621.22;;;5.63;100.00
10060;BME280;5069;49.306;8.636;2023-01-31T10:42:28;101588.09;;;5.67;100.00
10060;BME280;5069;49.306;8.636;2023-01-31T10:45:33;101587.25;;;5.69;100.00
10060;BME280;5069;49.306;8.636;2023-01-31T10:48:35;101602.00;;;5.60;100.00
10060;BME280;5069;49.306;8.636;2023-01-31T10:51:50;101593.31;;;5.70;100.00
10060;BME280;5069;49.306;8.636;2023-01-31T10:58:22;101568.84;;;5.59;100.00
10060;BME280;5069;49.306;8.636;2023-01-31T11:01:24;101565.34;;;5.54;100.00
10060;BME280;5069;49.306;8.636;2023-01-31T11:04:40;101555.69;;;5.44;100.00
10060;BME280;5069;49.306;8.636;2023-01-31T11:07:43;101574.03;;;5.50;100.00
10060;BME280;5069;49.306;8.636;2023-01-31T11:10:51;101580.16;;;5.53;100.00
10060;BME280;5069;49.306;8.636;2023-01-31T11:14:04;101578.38;;;5.49;100.00
10060;BME280;5069;49.306;8.636;2023-01-31T11:17:15;101577.50;;;5.46;100.00
10060;BME280;5069;49.306;8.636;2023-01-31T11:23:24;101575.72;;;5.38;100.00
10060;BME280;5069;49.306;8.636;2023-01-31T11:26:30;101568.69;;;5.31;100.00
10060;BME280;5069;49.306;8.636;2023-01-31T11:29:37;101551.28;;;5.33;100.00
10060;BME280;5069;49.306;8.636;2023-01-31T11:32:42;101527.78;;;5.35;100.00
10060;BME280;5069;49.306;8.636;2023-01-31T11:35:50;101540.78;;;5.30;100.00
10060;BME280;5069;49.306;8.636;2023-01-31T11:38:53;101519.84;;;5.24;100.00
10060;BME280;5069;49.306;8.636;2023-01-31T11:41:54;101523.34;;;5.23;100.00
10060;BME280;5069;49.306;8.636;2023-01-31T11:45:16;101511.16;;;5.31;100.00
10060;BME280;5069;49.306;8.636;2023-01-31T11:48:22;101505.94;;;5.31;100.00
10060;BME280;5069;49.306;8.636;2023-01-31T11:51:29;101495.44;;;5.22;100.00
10060;BME280;5069;49.306;8.636;2023-01-31T11:54:33;101497.19;;;5.23;100.00
10060;BME280;5069;49.306;8.636;2023-01-31T11:57:36;101506.75;;;5.18;100.00
10060;BME280;5069;49.306;8.636;2023-01-31T12:00:51;101507.50;;;5.01;100.00
10060;BME280;5069;49.306;8.636;2023-01-31T12:03:58;101497.88;;;4.93;100.00
10060;BME280;5069;49.306;8.636;2023-01-31T12:07:19;101474.34;;;4.92;100.00
10060;BME280;5069;49.306;8.636;2023-01-31T12:10:44;101470.03;;;5.00;100.00
10060;BME280;5069;49.306;8.636;2023-01-31T12:13:47;101470.91;;;4.99;100.00
10060;BME280;5069;49.306;8.636;2023-01-31T12:16:53;101469.09;;;4.90;100.00
10060;BME280;5069;49.306;8.636;2023-01-31T12:20:06;101460.44;;;4.99;100.00
10060;BME280;5069;49.306;8.636;2023-01-31T12:23:38;101461.34;;;4.99;100.00
10060;BME280;5069;49.306;8.636;2023-01-31T12:26:48;101462.25;;;5.06;100.00
10060;BME280;5069;49.306;8.636;2023-01-31T12:30:18;101438.63;;;4.95;100.00
10060;BME280;5069;49.306;8.636;2023-01-31T12:40:14;101429.91;;;4.92;100.00
10060;BME280;5069;49.306;8.636;2023-01-31T12:47:34;101419.44;;;4.87;100.00
10060;BME280;5069;49.306;8.636;2023-01-31T12:50:45;101414.19;;;4.84;100.00
10060;BME280;5069;49.306;8.636;2023-01-31T13:07:37;101446.47;;;4.95;100.00
10060;BME280;5069;49.306;8.636;2023-01-31T13:10:47;101423.78;;;4.90;100.00
10060;BME280;5069;49.306;8.636;2023-01-31T13:14:02;101415.06;;;4.85;100.00
10060;BME280;5069;49.306;8.636;2023-01-31T13:17:09;101423.78;;;4.87;100.00
10060;BME280;5069;49.306;8.636;2023-01-31T13:23:26;101421.19;;;4.90;100.00
10060;BME280;5069;49.306;8.636;2023-01-31T13:26:34;101421.19;;;4.84;100.00
10060;BME280;5069;49.306;8.636;2023-01-31T13:29:44;101395.91;;;4.84;100.00
10060;BME280;5069;49.306;8.636;2023-01-31T13:32:48;101385.41;;;4.74;100.00
10060;BME280;5069;49.306;8.636;2023-01-31T13:42:36;101384.56;;;4.76;100.00
10060;BME280;5069;49.306;8.636;2023-01-31T13:45:44;101367.16;;;4.81;100.00
10060;BME280;5069;49.306;8.636;2023-01-31T13:49:00;101341.88;;;4.76;100.00
10060;BME280;5069;49.306;8.636;2023-01-31T13:52:22;101341.91;;;4.82;100.00
10060;BME280;5069;49.306;8.636;2023-01-31T13:55:31;101350.66;;;4.84;100.00
10060;BME280;5069;49.306;8.636;2023-01-31T13:58:35;101336.69;;;4.85;100.00
10060;BME280;5069;49.306;8.636;2023-01-31T14:01:46;101359.41;;;4.95;100.00
10060;BME280;5069;49.306;8.636;2023-01-31T14:04:48;101369.84;;;4.95;100.00
10060;BME280;5069;49.306;8.636;2023-01-31T14:11:32;101375.94;;;4.97;100.00
10060;BME280;5069;49.306;8.636;2023-01-31T14:20:40;101354.22;;;5.01;100.00
10060;BME280;5069;49.306;8.636;2023-01-31T14:23:45;101375.13;;;5.13;100.00
10060;BME280;5069;49.306;8.636;2023-01-31T14:30:14;101375.19;;;5.18;100.00
10060;BME280;5069;49.306;8.636;2023-01-31T14:33:22;101368.19;;;5.15;100.00
10060;BME280;5069;49.306;8.636;2023-01-31T14:36:41;101359.50;;;5.25;100.00
10060;BME280;5069;49.306;8.636;2023-01-31T14:43:34;101342.03;;;5.09;100.00
10060;BME280;5069;49.306;8.636;2023-01-31T14:50:19;101339.47;;;5.18;100.00
10060;BME280;5069;49.306;8.636;2023-01-31T14:53:33;101347.31;;;5.18;100.00
10060;BME280;5069;49.306;8.636;2023-01-31T14:57:13;101348.19;;;5.23;100.00
10060;BME280;5069;49.306;8.636;2023-01-31T15:03:29;101354.31;;;5.24;100.00
10060;BME280;5069;49.306;8.636;2023-01-31T15:06:33;101342.06;;;5.18;100.00
10060;BME280;5069;49.306;8.636;2023-01-31T15:09:40;101335.09;;;5.25;100.00
10060;BME280;5069;49.306;8.636;2023-01-31T15:12:56;101348.22;;;5.34;100.00
10060;BME280;5069;49.306;8.636;2023-01-31T15:16:03;101345.59;;;5.37;100.00
10060;BME280;5069;49.306;8.636;2023-01-31T15:19:11;101349.06;;;5.36;100.00
10060;BME280;5069;49.306;8.636;2023-01-31T15:22:16;101340.38;;;5.38;100.00
10060;BME280;5069;49.306;8.636;2023-01-31T15:25:27;101348.25;;;5.46;100.00
10060;BME280;5069;49.306;8.636;2023-01-31T15:28:36;101340.41;;;5.51;100.00
10060;BME280;5069;49.306;8.636;2023-01-31T15:31:42;101340.41;;;5.64;100.00
10060;BME280;5069;49.306;8.636;2023-01-31T15:35:05;101332.56;;;5.55;100.00
10060;BME280;5069;49.306;8.636;2023-01-31T15:38:27;101339.53;;;5.59;100.00
10060;BME280;5069;49.306;8.636;2023-01-31T15:41:41;101335.19;;;5.54;100.00
10060;BME280;5069;49.306;8.636;2023-01-31T15:44:42;101330.84;;;5.65;100.00
10060;BME280;5069;49.306;8.636;2023-01-31T15:47:55;101333.47;;;5.63;100.00
10060;BME280;5069;49.306;8.636;2023-01-31T15:50:57;101339.59;;;5.64;100.00
10060;BME280;5069;49.306;8.636;2023-01-31T15:54:02;101337.81;;;5.60;100.00
10060;BME280;5069;49.306;8.636;2023-01-31T15:57:11;101331.72;;;5.70;100.00
10060;BME280;5069;49.306;8.636;2023-01-31T16:00:36;101336.09;;;5.77;100.00
10060;BME280;5069;49.306;8.636;2023-01-31T16:03:39;101344.00;;;5.92;100.00
10060;BME280;5069;49.306;8.636;2023-01-31T16:06:42;101346.59;;;5.95;100.00
10060;BME280;5069;49.306;8.636;2023-01-31T16:09:43;101356.22;;;5.96;100.00
10060;BME280;5069;49.306;8.636;2023-01-31T16:12:47;101344.00;;;5.95;100.00
10060;BME280;5069;49.306;8.636;2023-01-31T16:15:51;101354.44;;;5.98;100.00
10060;BME280;5069;49.306;8.636;2023-01-31T16:18:57;101354.47;;;6.01;100.00
10060;BME280;5069;49.306;8.636;2023-01-31T16:21:59;101349.22;;;5.95;100.00
10060;BME280;5069;49.306;8.636;2023-01-31T16:25:02;101357.09;;;5.97;100.00
10060;BME280;5069;49.306;8.636;2023-01-31T16:28:06;101353.59;;;5.98;100.00
10060;BME280;5069;49.306;8.636;2023-01-31T16:31:17;101357.97;;;5.97;100.00
10060;BME280;5069;49.306;8.636;2023-01-31T16:34:26;101357.09;;;5.92;100.00
10060;BME280;5069;49.306;8.636;2023-01-31T16:37:36;101352.72;;;5.94;100.00
10060;BME280;5069;49.306;8.636;2023-01-31T16:40:45;101352.72;;;5.97;100.00
10060;BME280;5069;49.306;8.636;2023-01-31T16:43:49;101362.28;;;5.94;100.00
10060;BME280;5069;49.306;8.636;2023-01-31T16:46:52;101362.31;;;5.97;100.00
10060;BME280;5069;49.306;8.636;2023-01-31T16:53:16;101378.91;;;6.03;100.00
10060;BME280;5069;49.306;8.636;2023-01-31T16:56:20;101366.69;;;5.98;100.00
10060;BME280;5069;49.306;8.636;2023-01-31T17:02:39;101354.44;;;6.04;100.00
10060;BME280;5069;49.306;8.636;2023-01-31T17:05:43;101357.06;;;6.06;100.00
10060;BME280;5069;49.306;8.636;2023-01-31T17:08:48;101352.72;;;6.03;100.00
10060;BME280;5069;49.306;8.636;2023-01-31T17:11:52;101349.22;;;6.01;100.00
10060;BME280;5069;49.306;8.636;2023-01-31T17:14:54;101352.72;;;5.97;100.00
10060;BME280;5069;49.306;8.636;2023-01-31T17:18:02;101344.88;;;6.02;100.00
10060;BME280;5069;49.306;8.636;2023-01-31T17:21:04;101339.63;;;5.99;100.00
10060;BME280;5069;49.306;8.636;2023-01-31T17:24:14;101326.53;;;6.00;100.00
10060;BME280;5069;49.306;8.636;2023-01-31T17:27:16;101326.53;;;6.00;100.00
10060;BME280;5069;49.306;8.636;2023-01-31T17:30:19;101319.56;;;5.99;100.00
10060;BME280;5069;49.306;8.636;2023-01-31T17:33:22;101330.03;;;5.93;100.00
10060;BME280;5069;49.306;8.636;2023-01-31T17:36:23;101323.94;;;5.96;100.00
10060;BME280;5069;49.306;8.636;2023-01-31T17:39:25;101329.16;;;6.05;100.00
10060;BME280;5069;49.306;8.636;2023-01-31T17:42:26;101330.03;;;5.99;100.00
10060;BME280;5069;49.306;8.636;2023-01-31T17:45:28;101321.31;;;6.03;100.00
10060;BME280;5069;49.306;8.636;2023-01-31T17:48:29;101326.56;;;6.03;100.00
10060;BME280;5069;49.306;8.636;2023-01-31T17:51:31;101321.31;;;6.06;100.00
10060;BME280;5069;49.306;8.636;2023-01-31T17:54:32;101330.91;;;6.00;100.00
10060;BME280;5069;49.306;8.636;2023-01-31T17:57:34;101330.03;;;6.05;100.00
10060;BME280;5069;49.306;8.636;2023-01-31T18:00:35;101323.06;;;6.07;100.00
10060;BME280;5069;49.306;8.636;2023-01-31T18:03:37;101321.28;;;6.05;100.00
10060;BME280;5069;49.306;8.636;2023-01-31T18:06:38;101316.94;;;6.04;100.00
10060;BME280;5069;49.306;8.636;2023-01-31T18:09:39;101318.69;;;6.06;100.00
10060;BME280;5069;49.306;8.636;2023-01-31T18:12:41;101319.56;;;6.05;100.00